DHK832 OOMS-EGNX
Flight info
| Callsign | DHK832 |
|---|---|
| Flight time | N/A |
| Altitude | 28000 |
| Route | MCT B400 DARAT DCT DAPOL DCT ALROK DCT ALRIK DCT PUSON L883 KITUB Y511 PMA/N0505F300 Z712 WEJ L677 CVO L617 NOZ L551 ANTAR DCT RIGRO/N0483F320 UN133 PEREN UL863 EVIVI L863 OKANA DCT NEPOS DCT TONDO DCT GITAS DCT BEGLA DCT DEXIT DCT INBED DCT BOMBI DCT DENUT L610 HEMEL |
| Aircraft | B763/H-SDE3FGHIM3RWXY/LB1 |
Departure
| Time | 2026-04-27 22:33 |
|---|---|
| Airport | Muscat International Airport (OOMS) |
Arrival
| Time | N/A |
|---|---|
| Airport | East Midlands Airport (EGNX) |
| Time | Latitude | Longitude | Altitude | Speed | Heading |
|---|---|---|---|---|---|
| 2026-04-27 22:11 | 23.59850 | 58.30056 | 43 ft | 0 kts | 355° |
| 2026-04-27 22:21 | 23.59849 | 58.30056 | 43 ft | 0 kts | 355° |
| 2026-04-27 22:21 | 23.59845 | 58.30056 | 43 ft | 2 kts | 355° |
| 2026-04-27 22:22 | 23.59830 | 58.30058 | 43 ft | 2 kts | 355° |
| 2026-04-27 22:22 | 23.59815 | 58.30059 | 43 ft | 2 kts | 355° |
| 2026-04-27 22:22 | 23.59800 | 58.30061 | 43 ft | 2 kts | 355° |
| 2026-04-27 22:22 | 23.59785 | 58.30062 | 43 ft | 2 kts | 355° |
| 2026-04-27 22:23 | 23.59769 | 58.30063 | 43 ft | 2 kts | 10° |
| 2026-04-27 22:23 | 23.59755 | 58.30058 | 43 ft | 2 kts | 29° |
| 2026-04-27 22:23 | 23.59743 | 58.30048 | 43 ft | 2 kts | 47° |
| 2026-04-27 22:23 | 23.59734 | 58.30035 | 43 ft | 2 kts | 65° |
| 2026-04-27 22:24 | 23.59730 | 58.30021 | 43 ft | 0 kts | 82° |
| 2026-04-27 22:24 | 23.59730 | 58.30014 | 43 ft | 0 kts | 85° |
| 2026-04-27 22:27 | 23.59730 | 58.30019 | 43 ft | 2 kts | 85° |
| 2026-04-27 22:27 | 23.59733 | 58.30053 | 43 ft | 6 kts | 84° |
| 2026-04-27 22:27 | 23.59738 | 58.30102 | 43 ft | 6 kts | 84° |
| 2026-04-27 22:28 | 23.59743 | 58.30157 | 43 ft | 7 kts | 85° |
| 2026-04-27 22:28 | 23.59747 | 58.30219 | 43 ft | 8 kts | 85° |
| 2026-04-27 22:28 | 23.59751 | 58.30275 | 43 ft | 6 kts | 86° |
| 2026-04-27 22:28 | 23.59754 | 58.30320 | 43 ft | 5 kts | 86° |
| 2026-04-27 22:29 | 23.59745 | 58.30344 | 43 ft | 3 kts | 126° |
| 2026-04-27 22:29 | 23.59725 | 58.30358 | 43 ft | 4 kts | 160° |
| 2026-04-27 22:29 | 23.59695 | 58.30357 | 43 ft | 4 kts | 203° |
| 2026-04-27 22:29 | 23.59673 | 58.30328 | 43 ft | 5 kts | 251° |
| 2026-04-27 22:30 | 23.59666 | 58.30273 | 43 ft | 8 kts | 263° |
| 2026-04-27 22:30 | 23.59659 | 58.30203 | 43 ft | 10 kts | 263° |
| 2026-04-27 22:30 | 23.59620 | 58.30160 | 43 ft | 8 kts | 187° |
| 2026-04-27 22:30 | 23.59589 | 58.30162 | 43 ft | 0 kts | 170° |
| 2026-04-27 22:31 | 23.59558 | 58.30167 | 43 ft | 11 kts | 175° |
| 2026-04-27 22:31 | 23.59462 | 58.30170 | 43 ft | 12 kts | 180° |
| 2026-04-27 22:31 | 23.59442 | 58.30140 | 43 ft | 0 kts | 265° |
| 2026-04-27 22:31 | 23.59441 | 58.30125 | 43 ft | 9 kts | 265° |
| 2026-04-27 22:32 | 23.59421 | 58.29875 | 43 ft | 57 kts | 265° |
| 2026-04-27 22:32 | 23.59373 | 58.29265 | 44 ft | 102 kts | 265° |
| 2026-04-27 22:32 | 23.59298 | 58.28352 | 44 ft | 140 kts | 265° |
| 2026-04-27 22:32 | 23.59206 | 58.27162 | 63 ft | 170 kts | 265° |
| 2026-04-27 22:33 | 23.59100 | 58.25822 | 184 ft | 187 kts | 266° |
| 2026-04-27 22:33 | 23.58986 | 58.24380 | 494 ft | 196 kts | 266° |
| 2026-04-27 22:33 | 23.58849 | 58.22882 | 885 ft | 202 kts | 266° |
| 2026-04-27 22:33 | 23.58697 | 58.21362 | 1310 ft | 208 kts | 265° |
| 2026-04-27 22:34 | 23.58320 | 58.19769 | 1448 ft | 229 kts | 242° |
| 2026-04-27 22:34 | 23.57163 | 58.18481 | 1579 ft | 254 kts | 208° |
| 2026-04-27 22:34 | 23.55484 | 58.17968 | 2321 ft | 245 kts | 192° |
| 2026-04-27 22:34 | 23.53857 | 58.17553 | 2936 ft | 239 kts | 198° |
| 2026-04-27 22:35 | 23.52230 | 58.17022 | 3156 ft | 254 kts | 200° |
| 2026-04-27 22:35 | 23.50490 | 58.16400 | 3441 ft | 266 kts | 201° |
| 2026-04-27 22:35 | 23.48700 | 58.15729 | 3723 ft | 279 kts | 201° |
| 2026-04-27 22:35 | 23.46835 | 58.15011 | 4130 ft | 287 kts | 202° |
| 2026-04-27 22:36 | 23.44950 | 58.14275 | 4718 ft | 288 kts | 201° |
| 2026-04-27 22:36 | 23.43065 | 58.13534 | 5259 ft | 290 kts | 201° |
| 2026-04-27 22:36 | 23.41160 | 58.12783 | 5823 ft | 291 kts | 201° |
| 2026-04-27 22:36 | 23.39317 | 58.11886 | 6325 ft | 292 kts | 214° |
| 2026-04-27 22:37 | 23.37596 | 58.10664 | 6913 ft | 292 kts | 214° |
| 2026-04-27 22:37 | 23.35899 | 58.09477 | 7451 ft | 293 kts | 214° |
| 2026-04-27 22:37 | 23.34170 | 58.08258 | 7988 ft | 294 kts | 214° |
| 2026-04-27 22:37 | 23.32450 | 58.07041 | 8533 ft | 295 kts | 214° |
| 2026-04-27 22:38 | 23.30733 | 58.05824 | 9061 ft | 296 kts | 214° |
| 2026-04-27 22:38 | 23.29011 | 58.04604 | 9548 ft | 299 kts | 214° |
| 2026-04-27 22:38 | 23.27242 | 58.03350 | 10039 ft | 302 kts | 214° |
| 2026-04-27 22:38 | 23.25469 | 58.02092 | 10463 ft | 307 kts | 214° |
| 2026-04-27 22:39 | 23.23607 | 58.00771 | 10591 ft | 324 kts | 214° |
| 2026-04-27 22:39 | 23.21686 | 57.99406 | 10753 ft | 340 kts | 214° |
| 2026-04-27 22:39 | 23.19642 | 57.97956 | 10916 ft | 357 kts | 214° |
| 2026-04-27 22:39 | 23.17501 | 57.96437 | 11076 ft | 373 kts | 214° |
| 2026-04-27 22:40 | 23.15277 | 57.94860 | 11243 ft | 390 kts | 214° |
| 2026-04-27 22:40 | 23.12995 | 57.93244 | 11719 ft | 395 kts | 214° |
| 2026-04-27 22:40 | 23.10693 | 57.91613 | 12308 ft | 398 kts | 214° |
| 2026-04-27 22:40 | 23.08330 | 57.89940 | 12860 ft | 402 kts | 214° |
| 2026-04-27 22:41 | 23.05983 | 57.88279 | 13419 ft | 404 kts | 214° |
| 2026-04-27 22:41 | 23.03635 | 57.86617 | 14032 ft | 405 kts | 215° |
| 2026-04-27 22:41 | 23.01254 | 57.84935 | 14612 ft | 406 kts | 215° |
| 2026-04-27 22:41 | 22.98864 | 57.83252 | 15171 ft | 408 kts | 215° |
| 2026-04-27 22:42 | 22.96490 | 57.81580 | 15698 ft | 410 kts | 215° |
| 2026-04-27 22:42 | 22.94091 | 57.79892 | 16212 ft | 412 kts | 215° |
| 2026-04-27 22:42 | 22.91660 | 57.78182 | 16735 ft | 414 kts | 215° |
| 2026-04-27 22:42 | 22.89237 | 57.76503 | 17245 ft | 416 kts | 212° |
| 2026-04-27 22:43 | 22.86619 | 57.75067 | 17654 ft | 422 kts | 207° |
| 2026-04-27 22:43 | 22.83980 | 57.73695 | 18141 ft | 424 kts | 208° |
| 2026-04-27 22:43 | 22.81290 | 57.72294 | 18599 ft | 428 kts | 208° |
| 2026-04-27 22:43 | 22.78557 | 57.70871 | 19047 ft | 432 kts | 208° |
| 2026-04-27 22:44 | 22.75806 | 57.69443 | 19525 ft | 435 kts | 208° |
| 2026-04-27 22:44 | 22.73070 | 57.68025 | 19950 ft | 439 kts | 208° |
| 2026-04-27 22:44 | 22.70309 | 57.66595 | 20397 ft | 442 kts | 208° |
| 2026-04-27 22:44 | 22.67488 | 57.65135 | 20862 ft | 444 kts | 208° |
| 2026-04-27 22:45 | 22.64692 | 57.63689 | 21296 ft | 448 kts | 209° |
| 2026-04-27 22:45 | 22.61834 | 57.62212 | 21745 ft | 451 kts | 209° |
| 2026-04-27 22:45 | 22.58988 | 57.60741 | 22142 ft | 454 kts | 209° |
| 2026-04-27 22:45 | 22.56129 | 57.59266 | 22633 ft | 456 kts | 209° |
| 2026-04-27 22:46 | 22.53267 | 57.57787 | 23010 ft | 459 kts | 209° |
| 2026-04-27 22:46 | 22.50363 | 57.56290 | 23456 ft | 461 kts | 209° |
| 2026-04-27 22:46 | 22.47444 | 57.54784 | 23873 ft | 464 kts | 209° |
| 2026-04-27 22:46 | 22.44510 | 57.53272 | 24256 ft | 467 kts | 209° |
| 2026-04-27 22:47 | 22.41559 | 57.51752 | 24670 ft | 469 kts | 209° |
| 2026-04-27 22:47 | 22.38697 | 57.50064 | 25037 ft | 468 kts | 217° |
| 2026-04-27 22:47 | 22.36138 | 57.47917 | 25426 ft | 466 kts | 226° |
| 2026-04-27 22:47 | 22.33937 | 57.45343 | 25837 ft | 463 kts | 236° |
| 2026-04-27 22:48 | 22.32178 | 57.42450 | 26206 ft | 462 kts | 244° |
| 2026-04-27 22:48 | 22.30872 | 57.39271 | 26588 ft | 461 kts | 252° |
| 2026-04-27 22:48 | 22.29798 | 57.36009 | 26987 ft | 462 kts | 252° |
| 2026-04-27 22:48 | 22.28707 | 57.32714 | 27370 ft | 463 kts | 252° |
| 2026-04-27 22:49 | 22.27641 | 57.29445 | 27849 ft | 462 kts | 252° |
| 2026-04-27 22:49 | 22.26586 | 57.26181 | 28304 ft | 462 kts | 252° |
| 2026-04-27 22:49 | 22.25532 | 57.22906 | 28881 ft | 458 kts | 252° |
| 2026-04-27 22:49 | 22.24498 | 57.19684 | 29321 ft | 456 kts | 252° |
| 2026-04-27 22:50 | 22.23445 | 57.16399 | 29646 ft | 457 kts | 252° |
| 2026-04-27 22:50 | 22.22412 | 57.13171 | 29829 ft | 455 kts | 252° |
| 2026-04-27 22:50 | 22.21376 | 57.09932 | 29809 ft | 453 kts | 252° |
| 2026-04-27 22:51 | 22.19332 | 57.03542 | 29821 ft | 451 kts | 252° |
| 2026-04-27 22:51 | 22.17269 | 56.97098 | 29814 ft | 452 kts | 252° |
| 2026-04-27 22:52 | 22.15219 | 56.90708 | 29800 ft | 451 kts | 252° |
| 2026-04-27 22:52 | 22.13214 | 56.84462 | 29798 ft | 451 kts | 252° |
| 2026-04-27 22:53 | 22.11126 | 56.77970 | 29791 ft | 452 kts | 252° |
| 2026-04-27 22:53 | 22.09055 | 56.71539 | 29789 ft | 451 kts | 252° |
| 2026-04-27 22:54 | 22.06997 | 56.65161 | 29787 ft | 451 kts | 252° |
| 2026-04-27 22:54 | 22.04913 | 56.58707 | 29773 ft | 452 kts | 252° |
| 2026-04-27 22:55 | 22.02844 | 56.52311 | 29768 ft | 451 kts | 252° |
| 2026-04-27 22:55 | 22.00790 | 56.45974 | 29771 ft | 451 kts | 252° |
| 2026-04-27 22:56 | 21.98720 | 56.39593 | 29775 ft | 452 kts | 252° |
| 2026-04-27 22:56 | 21.96642 | 56.33202 | 29779 ft | 452 kts | 252° |
| 2026-04-27 22:57 | 21.94581 | 56.26866 | 29783 ft | 452 kts | 252° |
| 2026-04-27 22:57 | 21.92505 | 56.20496 | 29779 ft | 451 kts | 252° |
| 2026-04-27 22:58 | 21.90421 | 56.14112 | 29777 ft | 450 kts | 252° |
| 2026-04-27 22:58 | 21.88331 | 56.07717 | 29777 ft | 452 kts | 252° |
| 2026-04-27 22:59 | 21.86263 | 56.01398 | 29773 ft | 452 kts | 251° |
| 2026-04-27 22:59 | 21.84164 | 55.94999 | 29772 ft | 453 kts | 252° |
| 2026-04-27 23:00 | 21.81010 | 55.85397 | 29769 ft | 452 kts | 252° |
| 2026-04-27 23:00 | 21.79231 | 55.79990 | 29769 ft | 452 kts | 252° |
| 2026-04-27 23:01 | 21.78083 | 55.76503 | 29769 ft | 452 kts | 252° |
| 2026-04-27 23:01 | 21.75981 | 55.70126 | 29767 ft | 452 kts | 252° |
| 2026-04-27 23:02 | 21.73875 | 55.63750 | 29769 ft | 452 kts | 252° |
| 2026-04-27 23:02 | 21.72151 | 55.57266 | 29783 ft | 450 kts | 264° |
| 2026-04-27 23:03 | 21.72219 | 55.50546 | 29785 ft | 452 kts | 274° |
| 2026-04-27 23:03 | 21.72676 | 55.43808 | 29770 ft | 452 kts | 274° |
| 2026-04-27 23:04 | 21.73146 | 55.37093 | 29766 ft | 452 kts | 274° |
| 2026-04-27 23:04 | 21.73624 | 55.30306 | 29778 ft | 451 kts | 274° |
| 2026-04-27 23:05 | 21.74099 | 55.23566 | 29775 ft | 451 kts | 274° |
| 2026-04-27 23:05 | 21.74572 | 55.16830 | 29774 ft | 451 kts | 274° |
| 2026-04-27 23:06 | 21.75044 | 55.10082 | 29776 ft | 452 kts | 274° |
| 2026-04-27 23:06 | 21.75512 | 55.03350 | 29781 ft | 450 kts | 274° |
| 2026-04-27 23:07 | 21.75978 | 54.96601 | 29788 ft | 450 kts | 274° |
| 2026-04-27 23:07 | 21.76440 | 54.89879 | 29794 ft | 451 kts | 274° |
| 2026-04-27 23:08 | 21.76897 | 54.83181 | 29799 ft | 450 kts | 274° |
| 2026-04-27 23:08 | 21.77348 | 54.76537 | 29797 ft | 448 kts | 274° |
| 2026-04-27 23:09 | 21.77801 | 54.69815 | 29795 ft | 449 kts | 274° |
| 2026-04-27 23:09 | 21.78250 | 54.63128 | 29787 ft | 451 kts | 274° |
| 2026-04-27 23:10 | 21.78700 | 54.56375 | 29781 ft | 450 kts | 274° |
| 2026-04-27 23:10 | 21.79146 | 54.49638 | 29779 ft | 450 kts | 274° |
| 2026-04-27 23:11 | 21.79588 | 54.42936 | 29778 ft | 449 kts | 274° |
| 2026-04-27 23:11 | 21.80026 | 54.36238 | 29783 ft | 449 kts | 274° |
| 2026-04-27 23:12 | 21.80466 | 54.29467 | 29792 ft | 449 kts | 273° |
| 2026-04-27 23:12 | 21.80899 | 54.22762 | 29794 ft | 448 kts | 273° |
| 2026-04-27 23:13 | 21.81330 | 54.16051 | 29791 ft | 448 kts | 273° |
| 2026-04-27 23:13 | 21.81757 | 54.09363 | 29784 ft | 448 kts | 273° |
| 2026-04-27 23:14 | 21.82180 | 54.02688 | 29779 ft | 449 kts | 273° |
| 2026-04-27 23:14 | 21.82605 | 53.95942 | 29776 ft | 449 kts | 273° |
| 2026-04-27 23:15 | 21.83023 | 53.89259 | 29775 ft | 449 kts | 273° |
| 2026-04-27 23:15 | 21.83440 | 53.82547 | 29781 ft | 449 kts | 273° |
| 2026-04-27 23:16 | 21.83858 | 53.75787 | 29788 ft | 448 kts | 273° |
| 2026-04-27 23:16 | 21.84268 | 53.69105 | 29797 ft | 447 kts | 273° |
| 2026-04-27 23:17 | 21.84676 | 53.62410 | 29796 ft | 448 kts | 273° |
| 2026-04-27 23:17 | 21.85080 | 53.55721 | 29796 ft | 447 kts | 273° |
| 2026-04-27 23:18 | 21.85484 | 53.49018 | 29801 ft | 448 kts | 273° |
| 2026-04-27 23:18 | 21.85882 | 53.42342 | 29796 ft | 449 kts | 273° |
| 2026-04-27 23:19 | 21.86279 | 53.35661 | 29793 ft | 447 kts | 273° |
| 2026-04-27 23:19 | 21.86675 | 53.28923 | 29805 ft | 449 kts | 272° |
| 2026-04-27 23:20 | 21.87068 | 53.22201 | 29802 ft | 449 kts | 272° |
| 2026-04-27 23:20 | 21.87460 | 53.15457 | 29800 ft | 448 kts | 273° |
| 2026-04-27 23:21 | 21.87848 | 53.08750 | 29797 ft | 449 kts | 273° |
| 2026-04-27 23:21 | 21.88231 | 53.02051 | 29784 ft | 449 kts | 272° |
| 2026-04-27 23:22 | 21.88613 | 52.95324 | 29778 ft | 448 kts | 272° |
| 2026-04-27 23:22 | 21.88992 | 52.88620 | 29783 ft | 448 kts | 272° |
| 2026-04-27 23:23 | 21.89369 | 52.81895 | 29786 ft | 449 kts | 272° |
| 2026-04-27 23:23 | 21.89743 | 52.75183 | 29777 ft | 448 kts | 272° |
| 2026-04-27 23:24 | 21.90123 | 52.68488 | 29779 ft | 448 kts | 273° |
| 2026-04-27 23:24 | 21.90539 | 52.61750 | 29779 ft | 448 kts | 273° |
| 2026-04-27 23:25 | 21.90947 | 52.55086 | 29782 ft | 447 kts | 273° |
| 2026-04-27 23:25 | 21.91355 | 52.48347 | 29778 ft | 449 kts | 273° |
| 2026-04-27 23:26 | 21.91759 | 52.41652 | 29780 ft | 448 kts | 272° |
| 2026-04-27 23:26 | 21.92158 | 52.34983 | 29795 ft | 448 kts | 272° |
| 2026-04-27 23:27 | 21.92561 | 52.28198 | 29807 ft | 448 kts | 272° |
| 2026-04-27 23:27 | 21.92957 | 52.21494 | 29808 ft | 448 kts | 272° |
| 2026-04-27 23:28 | 21.93348 | 52.14822 | 29810 ft | 447 kts | 272° |
| 2026-04-27 23:28 | 21.93739 | 52.08098 | 29804 ft | 446 kts | 272° |
| 2026-04-27 23:29 | 21.94123 | 52.01450 | 29805 ft | 446 kts | 272° |
| 2026-04-27 23:29 | 21.94506 | 51.94787 | 29805 ft | 448 kts | 272° |
| 2026-04-27 23:30 | 21.94891 | 51.88033 | 29797 ft | 449 kts | 272° |
| 2026-04-27 23:30 | 21.95269 | 51.81355 | 29799 ft | 446 kts | 272° |
| 2026-04-27 23:31 | 21.95644 | 51.74669 | 29801 ft | 446 kts | 272° |
| 2026-04-27 23:31 | 21.96017 | 51.67970 | 29798 ft | 448 kts | 272° |
| 2026-04-27 23:32 | 21.96388 | 51.61276 | 29794 ft | 446 kts | 272° |
| 2026-04-27 23:32 | 21.96585 | 51.57695 | 29790 ft | 446 kts | 272° |
| 2026-04-27 23:33 | 21.96778 | 51.54173 | 29785 ft | 446 kts | 272° |
| 2026-04-27 23:33 | 21.97141 | 51.47521 | 29782 ft | 447 kts | 272° |
| 2026-04-27 23:34 | 21.97503 | 51.40816 | 29776 ft | 446 kts | 272° |
| 2026-04-27 23:34 | 21.97863 | 51.34128 | 29777 ft | 446 kts | 272° |
| 2026-04-27 23:35 | 21.98218 | 51.27451 | 29784 ft | 447 kts | 272° |
| 2026-04-27 23:35 | 21.98572 | 51.20769 | 29782 ft | 447 kts | 272° |
| 2026-04-27 23:36 | 21.98924 | 51.14062 | 29782 ft | 446 kts | 272° |
| 2026-04-27 23:36 | 21.99271 | 51.07397 | 29788 ft | 446 kts | 272° |
| 2026-04-27 23:37 | 21.99616 | 51.00706 | 29799 ft | 446 kts | 272° |
| 2026-04-27 23:37 | 21.99959 | 50.94013 | 29804 ft | 447 kts | 272° |
| 2026-04-27 23:38 | 22.00299 | 50.87317 | 29803 ft | 445 kts | 272° |
| 2026-04-27 23:38 | 22.00634 | 50.80690 | 29802 ft | 445 kts | 272° |
| 2026-04-27 23:39 | 22.00967 | 50.74047 | 29791 ft | 445 kts | 272° |
| 2026-04-27 23:39 | 22.01297 | 50.67380 | 29789 ft | 444 kts | 272° |
| 2026-04-27 23:40 | 22.01621 | 50.60785 | 29786 ft | 444 kts | 272° |
| 2026-04-27 23:40 | 22.01946 | 50.54152 | 29787 ft | 444 kts | 272° |
| 2026-04-27 23:41 | 22.02267 | 50.47514 | 29788 ft | 444 kts | 272° |
| 2026-04-27 23:41 | 22.02586 | 50.40866 | 29789 ft | 444 kts | 272° |
| 2026-04-27 23:42 | 22.02901 | 50.34247 | 29791 ft | 444 kts | 271° |
| 2026-04-27 23:42 | 22.03214 | 50.27610 | 29800 ft | 442 kts | 272° |
| 2026-04-27 23:43 | 22.03523 | 50.21013 | 29806 ft | 442 kts | 271° |
| 2026-04-27 23:43 | 22.03830 | 50.14391 | 29809 ft | 441 kts | 272° |
| 2026-04-27 23:44 | 22.04133 | 50.07792 | 29818 ft | 443 kts | 272° |
| 2026-04-27 23:44 | 22.04434 | 50.01193 | 29822 ft | 444 kts | 271° |
| 2026-04-27 23:45 | 22.04735 | 49.94544 | 29816 ft | 442 kts | 271° |
| 2026-04-27 23:45 | 22.05030 | 49.87955 | 29812 ft | 442 kts | 271° |
| 2026-04-27 23:46 | 22.05325 | 49.81295 | 29801 ft | 443 kts | 272° |
| 2026-04-27 23:46 | 22.05615 | 49.74713 | 29796 ft | 441 kts | 272° |
| 2026-04-27 23:47 | 22.05902 | 49.68111 | 29795 ft | 441 kts | 271° |
| 2026-04-27 23:47 | 22.06187 | 49.61510 | 29795 ft | 442 kts | 271° |
| 2026-04-27 23:48 | 22.06469 | 49.54923 | 29794 ft | 440 kts | 272° |
| 2026-04-27 23:48 | 22.06748 | 49.48328 | 29793 ft | 439 kts | 271° |
| 2026-04-27 23:49 | 22.07023 | 49.41769 | 29799 ft | 442 kts | 272° |
| 2026-04-27 23:49 | 22.07298 | 49.35161 | 29795 ft | 440 kts | 271° |
| 2026-04-27 23:50 | 22.07569 | 49.28571 | 29812 ft | 441 kts | 271° |
| 2026-04-27 23:50 | 22.07839 | 49.21962 | 29803 ft | 441 kts | 271° |
| 2026-04-27 23:51 | 22.08103 | 49.15405 | 29801 ft | 440 kts | 271° |
| 2026-04-27 23:51 | 22.08365 | 49.08834 | 29805 ft | 439 kts | 271° |
| 2026-04-27 23:52 | 22.08625 | 49.02262 | 29805 ft | 440 kts | 271° |
| 2026-04-27 23:52 | 22.08884 | 48.95645 | 29804 ft | 441 kts | 271° |
| 2026-04-27 23:53 | 22.09140 | 48.89043 | 29813 ft | 441 kts | 271° |
| 2026-04-27 23:53 | 22.09392 | 48.82479 | 29812 ft | 440 kts | 271° |
| 2026-04-27 23:54 | 22.09642 | 48.75905 | 29802 ft | 439 kts | 271° |
| 2026-04-27 23:54 | 22.09887 | 48.69346 | 29804 ft | 438 kts | 271° |
| 2026-04-27 23:55 | 22.10133 | 48.62733 | 29808 ft | 439 kts | 271° |
| 2026-04-27 23:55 | 22.10374 | 48.56164 | 29812 ft | 440 kts | 271° |
| 2026-04-27 23:56 | 22.10613 | 48.49579 | 29816 ft | 439 kts | 271° |
| 2026-04-27 23:56 | 22.11035 | 48.43063 | 29820 ft | 440 kts | 279° |
| 2026-04-27 23:57 | 22.12991 | 48.36755 | 29820 ft | 446 kts | 288° |
| 2026-04-27 23:57 | 22.15179 | 48.30653 | 29825 ft | 446 kts | 288° |
| 2026-04-27 23:58 | 22.17409 | 48.24429 | 29825 ft | 445 kts | 288° |
| 2026-04-27 23:58 | 22.19629 | 48.18227 | 29827 ft | 445 kts | 288° |
| 2026-04-27 23:59 | 22.21847 | 48.12020 | 29829 ft | 444 kts | 288° |
| 2026-04-27 23:59 | 22.24058 | 48.05823 | 29828 ft | 444 kts | 288° |
| 2026-04-28 00:00 | 22.26285 | 47.99573 | 29833 ft | 445 kts | 288° |
| 2026-04-28 00:00 | 22.28501 | 47.93343 | 29829 ft | 446 kts | 288° |
| 2026-04-28 00:01 | 22.30729 | 47.87077 | 29831 ft | 445 kts | 288° |
| 2026-04-28 00:01 | 22.32928 | 47.80876 | 29834 ft | 444 kts | 288° |
| 2026-04-28 00:02 | 22.35130 | 47.74664 | 29837 ft | 445 kts | 288° |
| 2026-04-28 00:02 | 22.37339 | 47.68420 | 29843 ft | 444 kts | 287° |
| 2026-04-28 00:03 | 22.39549 | 47.62166 | 29849 ft | 443 kts | 287° |
| 2026-04-28 00:03 | 22.41736 | 47.55967 | 29861 ft | 444 kts | 287° |
| 2026-04-28 00:04 | 22.45032 | 47.46612 | 29864 ft | 444 kts | 287° |
| 2026-04-28 00:05 | 22.47214 | 47.40405 | 29879 ft | 443 kts | 287° |
| 2026-04-28 00:05 | 22.49391 | 47.34205 | 29880 ft | 443 kts | 287° |
| 2026-04-28 00:06 | 22.51587 | 47.27943 | 29894 ft | 444 kts | 287° |
| 2026-04-28 00:06 | 22.53771 | 47.21711 | 29897 ft | 443 kts | 287° |
| 2026-04-28 00:07 | 22.55956 | 47.15465 | 29894 ft | 443 kts | 287° |
| 2026-04-28 00:07 | 22.58122 | 47.09267 | 29890 ft | 442 kts | 287° |
| 2026-04-28 00:08 | 22.60297 | 47.03036 | 29897 ft | 442 kts | 287° |
| 2026-04-28 00:08 | 22.62461 | 46.96828 | 29897 ft | 442 kts | 287° |
| 2026-04-28 00:09 | 22.64632 | 46.90591 | 29901 ft | 443 kts | 287° |
| 2026-04-28 00:09 | 22.66799 | 46.84351 | 29902 ft | 442 kts | 287° |
| 2026-04-28 00:10 | 22.68963 | 46.78115 | 29904 ft | 442 kts | 287° |
| 2026-04-28 00:10 | 22.71113 | 46.71912 | 29906 ft | 441 kts | 287° |
| 2026-04-28 00:11 | 22.73267 | 46.65686 | 29916 ft | 441 kts | 287° |
| 2026-04-28 00:11 | 22.75409 | 46.59486 | 29931 ft | 441 kts | 287° |
| 2026-04-28 00:12 | 22.77555 | 46.53265 | 29944 ft | 442 kts | 287° |
| 2026-04-28 00:12 | 22.79701 | 46.47035 | 29958 ft | 441 kts | 287° |
| 2026-04-28 00:13 | 22.81786 | 46.40776 | 29965 ft | 439 kts | 282° |
| 2026-04-28 00:13 | 22.82606 | 46.34317 | 29979 ft | 435 kts | 272° |
| 2026-04-28 00:14 | 22.83126 | 46.27792 | 29989 ft | 435 kts | 272° |
| 2026-04-28 00:14 | 22.83621 | 46.21262 | 29986 ft | 434 kts | 272° |
| 2026-04-28 00:15 | 22.84104 | 46.14752 | 29965 ft | 434 kts | 272° |
| 2026-04-28 00:15 | 22.84582 | 46.08212 | 29944 ft | 434 kts | 272° |
| 2026-04-28 00:16 | 22.85053 | 46.01717 | 29934 ft | 432 kts | 272° |
| 2026-04-28 00:16 | 22.85520 | 45.95245 | 29929 ft | 433 kts | 271° |
| 2026-04-28 00:17 | 22.85986 | 45.88732 | 29928 ft | 433 kts | 271° |
| 2026-04-28 00:17 | 22.86447 | 45.82248 | 29928 ft | 433 kts | 272° |
| 2026-04-28 00:18 | 22.86907 | 45.75753 | 29926 ft | 432 kts | 272° |
| 2026-04-28 00:18 | 22.87361 | 45.69303 | 29928 ft | 431 kts | 272° |
| 2026-04-28 00:19 | 22.87813 | 45.62829 | 29936 ft | 432 kts | 272° |
| 2026-04-28 00:19 | 22.88268 | 45.56298 | 29941 ft | 432 kts | 272° |
| 2026-04-28 00:20 | 22.88714 | 45.49826 | 29937 ft | 432 kts | 272° |
| 2026-04-28 00:20 | 22.89160 | 45.43335 | 29934 ft | 431 kts | 272° |
| 2026-04-28 00:21 | 22.89601 | 45.36886 | 29930 ft | 432 kts | 272° |
| 2026-04-28 00:21 | 22.90043 | 45.30373 | 29944 ft | 431 kts | 272° |
| 2026-04-28 00:22 | 22.90479 | 45.23918 | 29942 ft | 430 kts | 272° |
| 2026-04-28 00:22 | 22.90911 | 45.17469 | 29943 ft | 431 kts | 272° |
| 2026-04-28 00:23 | 22.91344 | 45.10973 | 29945 ft | 430 kts | 272° |
| 2026-04-28 00:23 | 22.91770 | 45.04528 | 29946 ft | 429 kts | 272° |
| 2026-04-28 00:24 | 22.92194 | 44.98104 | 29944 ft | 430 kts | 271° |
| 2026-04-28 00:24 | 22.92613 | 44.91671 | 29946 ft | 428 kts | 272° |
| 2026-04-28 00:25 | 22.93030 | 44.85246 | 29951 ft | 428 kts | 272° |
| 2026-04-28 00:25 | 22.93446 | 44.78814 | 29950 ft | 427 kts | 271° |
| 2026-04-28 00:26 | 22.93856 | 44.72414 | 29952 ft | 425 kts | 272° |
| 2026-04-28 00:26 | 22.94586 | 44.66079 | 29954 ft | 427 kts | 283° |
| 2026-04-28 00:27 | 22.96443 | 44.59913 | 29943 ft | 431 kts | 285° |
| 2026-04-28 00:27 | 22.98328 | 44.53767 | 29946 ft | 431 kts | 285° |
| 2026-04-28 00:28 | 23.00227 | 44.47589 | 29937 ft | 428 kts | 285° |
| 2026-04-28 00:28 | 23.02103 | 44.41486 | 29943 ft | 427 kts | 285° |
| 2026-04-28 00:29 | 23.03971 | 44.35409 | 29960 ft | 428 kts | 284° |
| 2026-04-28 00:29 | 23.05854 | 44.29272 | 29976 ft | 427 kts | 284° |
| 2026-04-28 00:30 | 23.07730 | 44.23152 | 29986 ft | 425 kts | 284° |
| 2026-04-28 00:30 | 23.09586 | 44.17084 | 29986 ft | 426 kts | 285° |
| 2026-04-28 00:31 | 23.11461 | 44.10949 | 29982 ft | 425 kts | 284° |
| 2026-04-28 00:31 | 23.13312 | 44.04884 | 29979 ft | 423 kts | 285° |
| 2026-04-28 00:32 | 23.15157 | 43.98827 | 29983 ft | 423 kts | 284° |
| 2026-04-28 00:32 | 23.17010 | 43.92730 | 29995 ft | 424 kts | 284° |
| 2026-04-28 00:33 | 23.18847 | 43.86688 | 29988 ft | 423 kts | 284° |
| 2026-04-28 00:33 | 23.20680 | 43.80639 | 29994 ft | 421 kts | 284° |
| 2026-04-28 00:34 | 23.22514 | 43.74583 | 29990 ft | 421 kts | 285° |
| 2026-04-28 00:34 | 23.24333 | 43.68564 | 29997 ft | 421 kts | 285° |
| 2026-04-28 00:35 | 23.26149 | 43.62550 | 29994 ft | 420 kts | 284° |
| 2026-04-28 00:35 | 23.27968 | 43.56512 | 29997 ft | 420 kts | 284° |
| 2026-04-28 00:36 | 23.29784 | 43.50483 | 29992 ft | 421 kts | 284° |
| 2026-04-28 00:36 | 23.31603 | 43.44430 | 29994 ft | 421 kts | 284° |
| 2026-04-28 00:37 | 23.33415 | 43.38393 | 29994 ft | 419 kts | 284° |
| 2026-04-28 00:37 | 23.35227 | 43.32341 | 30018 ft | 420 kts | 283° |
| 2026-04-28 00:38 | 23.37037 | 43.26290 | 30027 ft | 421 kts | 284° |
| 2026-04-28 00:38 | 23.38851 | 43.20216 | 30023 ft | 420 kts | 284° |
| 2026-04-28 00:39 | 23.40644 | 43.14203 | 30024 ft | 419 kts | 284° |
| 2026-04-28 00:39 | 23.42437 | 43.08167 | 30026 ft | 418 kts | 284° |
| 2026-04-28 00:40 | 23.44220 | 43.02155 | 30024 ft | 419 kts | 284° |
| 2026-04-28 00:40 | 23.46002 | 42.96137 | 30026 ft | 419 kts | 284° |
| 2026-04-28 00:41 | 23.47791 | 42.90084 | 30019 ft | 418 kts | 284° |
| 2026-04-28 00:41 | 23.49573 | 42.84048 | 30021 ft | 419 kts | 284° |
| 2026-04-28 00:42 | 23.51345 | 42.78039 | 30022 ft | 417 kts | 284° |
| 2026-04-28 00:42 | 23.53123 | 42.72005 | 30013 ft | 416 kts | 284° |
| 2026-04-28 00:43 | 23.54884 | 42.66024 | 30016 ft | 416 kts | 283° |
| 2026-04-28 00:43 | 23.56652 | 42.60007 | 30015 ft | 418 kts | 284° |
| 2026-04-28 00:44 | 23.58419 | 42.53992 | 30011 ft | 415 kts | 284° |
| 2026-04-28 00:44 | 23.60166 | 42.48031 | 30010 ft | 415 kts | 284° |
| 2026-04-28 00:45 | 23.61921 | 42.42034 | 30002 ft | 416 kts | 284° |
| 2026-04-28 00:45 | 23.63673 | 42.36037 | 29999 ft | 415 kts | 284° |
| 2026-04-28 00:46 | 23.65429 | 42.30022 | 30008 ft | 416 kts | 283° |
| 2026-04-28 00:46 | 23.67169 | 42.24029 | 30012 ft | 416 kts | 283° |
| 2026-04-28 00:47 | 23.68901 | 42.18055 | 30007 ft | 413 kts | 283° |
| 2026-04-28 00:47 | 23.70637 | 42.12057 | 30012 ft | 413 kts | 283° |
| 2026-04-28 00:48 | 23.72352 | 42.06117 | 30013 ft | 412 kts | 284° |
| 2026-04-28 00:48 | 23.74076 | 42.00148 | 29997 ft | 410 kts | 283° |
| 2026-04-28 00:49 | 23.75789 | 41.94217 | 30001 ft | 411 kts | 283° |
| 2026-04-28 00:49 | 23.77506 | 41.88274 | 30003 ft | 412 kts | 283° |
| 2026-04-28 00:50 | 23.79231 | 41.82293 | 29996 ft | 413 kts | 283° |
| 2026-04-28 00:50 | 23.80950 | 41.76323 | 30005 ft | 414 kts | 283° |
| 2026-04-28 00:51 | 23.82671 | 41.70331 | 30005 ft | 412 kts | 283° |
| 2026-04-28 00:51 | 23.84377 | 41.64377 | 30010 ft | 413 kts | 283° |
| 2026-04-28 00:52 | 23.86094 | 41.58380 | 30003 ft | 413 kts | 283° |
| 2026-04-28 00:52 | 23.87799 | 41.52398 | 30005 ft | 412 kts | 283° |
| 2026-04-28 00:53 | 23.89497 | 41.46417 | 30000 ft | 413 kts | 283° |
| 2026-04-28 00:53 | 23.91196 | 41.40428 | 29997 ft | 413 kts | 283° |
| 2026-04-28 00:54 | 23.92889 | 41.34449 | 29998 ft | 414 kts | 283° |
| 2026-04-28 00:54 | 23.94607 | 41.28398 | 30009 ft | 415 kts | 283° |
| 2026-04-28 00:55 | 23.96310 | 41.22384 | 30002 ft | 413 kts | 283° |
| 2026-04-28 00:55 | 23.98008 | 41.16377 | 30006 ft | 413 kts | 283° |
| 2026-04-28 00:56 | 23.99698 | 41.10392 | 30002 ft | 414 kts | 283° |
| 2026-04-28 00:56 | 24.01395 | 41.04371 | 30001 ft | 413 kts | 283° |
| 2026-04-28 00:57 | 24.03075 | 40.98397 | 29998 ft | 412 kts | 283° |
| 2026-04-28 00:57 | 24.04756 | 40.92414 | 29990 ft | 412 kts | 283° |
| 2026-04-28 00:58 | 24.06436 | 40.86422 | 29996 ft | 413 kts | 282° |
| 2026-04-28 00:58 | 24.08110 | 40.80447 | 29995 ft | 411 kts | 282° |
| 2026-04-28 00:59 | 24.09787 | 40.74450 | 29988 ft | 412 kts | 283° |
| 2026-04-28 00:59 | 24.11461 | 40.68450 | 29989 ft | 413 kts | 283° |
| 2026-04-28 01:00 | 24.13128 | 40.62468 | 29980 ft | 411 kts | 282° |
| 2026-04-28 01:00 | 24.14801 | 40.56452 | 29983 ft | 412 kts | 282° |
| 2026-04-28 01:01 | 24.16676 | 40.50545 | 29989 ft | 417 kts | 291° |
| 2026-04-28 01:01 | 24.19362 | 40.44913 | 29988 ft | 419 kts | 292° |
| 2026-04-28 01:02 | 24.22062 | 40.39265 | 29983 ft | 418 kts | 292° |
| 2026-04-28 01:02 | 24.24760 | 40.33622 | 29993 ft | 417 kts | 292° |
| 2026-04-28 01:03 | 24.27466 | 40.27962 | 29995 ft | 418 kts | 291° |
| 2026-04-28 01:03 | 24.30165 | 40.22315 | 29993 ft | 418 kts | 291° |
| 2026-04-28 01:04 | 24.32850 | 40.16692 | 29994 ft | 418 kts | 291° |
| 2026-04-28 01:04 | 24.35537 | 40.11055 | 29986 ft | 417 kts | 291° |
| 2026-04-28 01:05 | 24.38239 | 40.05380 | 29983 ft | 419 kts | 291° |
| 2026-04-28 01:05 | 24.40930 | 39.99724 | 29984 ft | 418 kts | 291° |
| 2026-04-28 01:06 | 24.43610 | 39.94083 | 29981 ft | 416 kts | 291° |
| 2026-04-28 01:06 | 24.46279 | 39.88459 | 29983 ft | 416 kts | 291° |
| 2026-04-28 01:07 | 24.48957 | 39.82809 | 29974 ft | 415 kts | 291° |
| 2026-04-28 01:07 | 24.51634 | 39.77155 | 29975 ft | 417 kts | 291° |
| 2026-04-28 01:08 | 24.54573 | 39.71601 | 29976 ft | 426 kts | 302° |
| 2026-04-28 01:08 | 24.59024 | 39.67160 | 29996 ft | 441 kts | 315° |
| 2026-04-28 01:09 | 24.64018 | 39.63169 | 29989 ft | 444 kts | 315° |
| 2026-04-28 01:09 | 24.69006 | 39.59182 | 29991 ft | 444 kts | 315° |
| 2026-04-28 01:10 | 24.73990 | 39.55198 | 29996 ft | 440 kts | 315° |
| 2026-04-28 01:10 | 24.78947 | 39.51228 | 30001 ft | 441 kts | 315° |
| 2026-04-28 01:11 | 24.83929 | 39.47237 | 29994 ft | 442 kts | 315° |
| 2026-04-28 01:11 | 24.88923 | 39.43233 | 29976 ft | 443 kts | 315° |
| 2026-04-28 01:12 | 24.93898 | 39.39241 | 29966 ft | 441 kts | 315° |
| 2026-04-28 01:12 | 24.98865 | 39.35250 | 29960 ft | 442 kts | 315° |
| 2026-04-28 01:13 | 25.03849 | 39.31240 | 29968 ft | 443 kts | 315° |
| 2026-04-28 01:13 | 25.11354 | 39.25196 | 29989 ft | 443 kts | 315° |
| 2026-04-28 01:14 | 25.16324 | 39.21190 | 29979 ft | 441 kts | 315° |
| 2026-04-28 01:14 | 25.21162 | 39.17074 | 29982 ft | 434 kts | 307° |
| 2026-04-28 01:15 | 25.24763 | 39.11902 | 29988 ft | 424 kts | 296° |
| 2026-04-28 01:15 | 25.28017 | 39.06466 | 29984 ft | 423 kts | 296° |
| 2026-04-28 01:16 | 25.31225 | 39.01031 | 29969 ft | 423 kts | 296° |
| 2026-04-28 01:16 | 25.34419 | 38.95589 | 29971 ft | 421 kts | 296° |
| 2026-04-28 01:17 | 25.37606 | 38.90139 | 29967 ft | 421 kts | 296° |
| 2026-04-28 01:17 | 25.40777 | 38.84703 | 29963 ft | 423 kts | 296° |
| 2026-04-28 01:18 | 25.43961 | 38.79242 | 29952 ft | 421 kts | 296° |
| 2026-04-28 01:18 | 25.47138 | 38.73780 | 29951 ft | 421 kts | 296° |
| 2026-04-28 01:19 | 25.50289 | 38.68358 | 29939 ft | 421 kts | 296° |
| 2026-04-28 01:19 | 25.53454 | 38.62905 | 29949 ft | 422 kts | 296° |
| 2026-04-28 01:20 | 25.56629 | 38.57431 | 29933 ft | 420 kts | 296° |
| 2026-04-28 01:20 | 25.59770 | 38.52007 | 29949 ft | 421 kts | 296° |
| 2026-04-28 01:21 | 25.62935 | 38.46534 | 29952 ft | 421 kts | 296° |
| 2026-04-28 01:21 | 25.66089 | 38.41075 | 29951 ft | 421 kts | 297° |
| 2026-04-28 01:22 | 25.69245 | 38.35607 | 29946 ft | 421 kts | 296° |
| 2026-04-28 01:22 | 25.72407 | 38.30122 | 29962 ft | 420 kts | 296° |
| 2026-04-28 01:23 | 25.75547 | 38.24665 | 29949 ft | 422 kts | 296° |
| 2026-04-28 01:23 | 25.78706 | 38.19173 | 29943 ft | 422 kts | 296° |
| 2026-04-28 01:24 | 25.81863 | 38.13675 | 29954 ft | 421 kts | 296° |
| 2026-04-28 01:24 | 25.85007 | 38.08196 | 29962 ft | 422 kts | 296° |
| 2026-04-28 01:25 | 25.88158 | 38.02699 | 29956 ft | 420 kts | 296° |
| 2026-04-28 01:25 | 25.91276 | 37.97249 | 29950 ft | 420 kts | 297° |
| 2026-04-28 01:26 | 25.94420 | 37.91750 | 29945 ft | 421 kts | 296° |
| 2026-04-28 01:26 | 25.97552 | 37.86264 | 29951 ft | 422 kts | 296° |
| 2026-04-28 01:27 | 26.00211 | 37.80563 | 29972 ft | 413 kts | 283° |
| 2026-04-28 01:27 | 26.01312 | 37.74337 | 29977 ft | 410 kts | 277° |
| 2026-04-28 01:28 | 26.02219 | 37.68076 | 29966 ft | 409 kts | 276° |
| 2026-04-28 01:28 | 26.03084 | 37.61873 | 29952 ft | 410 kts | 276° |
| 2026-04-28 01:29 | 26.03943 | 37.55594 | 29953 ft | 411 kts | 276° |
| 2026-04-28 01:29 | 26.04797 | 37.49297 | 29931 ft | 409 kts | 276° |
| 2026-04-28 01:30 | 26.05635 | 37.43065 | 29929 ft | 410 kts | 276° |
| 2026-04-28 01:30 | 26.06479 | 37.36761 | 29927 ft | 412 kts | 276° |
| 2026-04-28 01:31 | 26.07320 | 37.30447 | 29938 ft | 413 kts | 276° |
| 2026-04-28 01:31 | 26.08156 | 37.24150 | 29933 ft | 413 kts | 276° |
| 2026-04-28 01:32 | 26.08995 | 37.17816 | 29923 ft | 414 kts | 276° |
| 2026-04-28 01:32 | 26.09824 | 37.11526 | 29924 ft | 413 kts | 276° |
| 2026-04-28 01:33 | 26.10643 | 37.05293 | 29909 ft | 412 kts | 276° |
| 2026-04-28 01:33 | 26.11467 | 36.99007 | 29896 ft | 413 kts | 276° |
| 2026-04-28 01:34 | 26.12291 | 36.92693 | 29905 ft | 412 kts | 276° |
| 2026-04-28 01:34 | 26.13115 | 36.86360 | 29886 ft | 414 kts | 276° |
| 2026-04-28 01:35 | 26.13938 | 36.80008 | 29874 ft | 414 kts | 276° |
| 2026-04-28 01:35 | 26.14752 | 36.73702 | 29885 ft | 413 kts | 276° |
| 2026-04-28 01:36 | 26.15566 | 36.67378 | 29878 ft | 413 kts | 276° |
| 2026-04-28 01:36 | 26.16378 | 36.61040 | 29870 ft | 415 kts | 276° |
| 2026-04-28 01:37 | 26.17190 | 36.54696 | 29865 ft | 414 kts | 277° |
| 2026-04-28 01:37 | 26.19014 | 36.48587 | 29882 ft | 422 kts | 295° |
| 2026-04-28 01:38 | 26.22696 | 36.43416 | 29885 ft | 433 kts | 308° |
| 2026-04-28 01:38 | 26.26875 | 36.38577 | 29862 ft | 434 kts | 308° |
| 2026-04-28 01:39 | 26.31008 | 36.33801 | 29871 ft | 436 kts | 308° |
| 2026-04-28 01:39 | 26.35227 | 36.28928 | 29873 ft | 435 kts | 308° |
| 2026-04-28 01:40 | 26.39403 | 36.24102 | 29881 ft | 433 kts | 308° |
| 2026-04-28 01:40 | 26.43593 | 36.19255 | 29879 ft | 433 kts | 308° |
| 2026-04-28 01:41 | 26.47775 | 36.14413 | 29866 ft | 435 kts | 308° |
| 2026-04-28 01:41 | 26.51979 | 36.09542 | 29879 ft | 433 kts | 308° |
| 2026-04-28 01:42 | 26.56138 | 36.04715 | 29871 ft | 434 kts | 308° |
| 2026-04-28 01:42 | 26.60124 | 36.00085 | 29863 ft | 436 kts | 308° |
| 2026-04-28 01:43 | 26.64311 | 35.95216 | 29877 ft | 437 kts | 308° |
| 2026-04-28 01:43 | 26.68521 | 35.90315 | 29872 ft | 436 kts | 308° |
| 2026-04-28 01:44 | 26.72711 | 35.85432 | 29874 ft | 437 kts | 309° |
| 2026-04-28 01:44 | 26.76925 | 35.80515 | 29876 ft | 437 kts | 309° |
| 2026-04-28 01:45 | 26.81145 | 35.75586 | 29872 ft | 439 kts | 309° |
| 2026-04-28 01:45 | 26.85356 | 35.70663 | 29867 ft | 437 kts | 309° |
| 2026-04-28 01:46 | 26.89568 | 35.65732 | 29875 ft | 439 kts | 309° |
| 2026-04-28 01:46 | 26.93783 | 35.60792 | 29871 ft | 438 kts | 309° |
| 2026-04-28 01:47 | 26.97957 | 35.55895 | 29872 ft | 437 kts | 309° |
| 2026-04-28 01:47 | 27.02180 | 35.50934 | 29872 ft | 440 kts | 309° |
| 2026-04-28 01:48 | 27.06400 | 35.45972 | 29865 ft | 438 kts | 309° |
| 2026-04-28 01:48 | 27.10605 | 35.41022 | 29875 ft | 437 kts | 309° |
| 2026-04-28 01:49 | 27.14810 | 35.36063 | 29885 ft | 439 kts | 309° |
| 2026-04-28 01:49 | 27.18955 | 35.31173 | 29897 ft | 439 kts | 309° |
| 2026-04-28 01:50 | 27.23143 | 35.26226 | 29894 ft | 437 kts | 309° |
| 2026-04-28 01:50 | 27.27344 | 35.21255 | 29889 ft | 439 kts | 309° |
| 2026-04-28 01:51 | 27.31554 | 35.16269 | 29882 ft | 440 kts | 309° |
| 2026-04-28 01:51 | 27.35746 | 35.11299 | 29888 ft | 439 kts | 309° |
| 2026-04-28 01:52 | 27.39923 | 35.06341 | 29886 ft | 439 kts | 309° |
| 2026-04-28 01:52 | 27.44128 | 35.01342 | 29886 ft | 440 kts | 309° |
| 2026-04-28 01:53 | 27.48325 | 34.96350 | 29885 ft | 438 kts | 309° |
| 2026-04-28 01:53 | 27.52592 | 34.91407 | 29900 ft | 442 kts | 313° |
| 2026-04-28 01:54 | 27.57067 | 34.86713 | 29884 ft | 442 kts | 313° |
| 2026-04-28 01:54 | 27.61553 | 34.81981 | 29879 ft | 441 kts | 313° |
| 2026-04-28 01:55 | 27.66038 | 34.77240 | 29904 ft | 440 kts | 313° |
| 2026-04-28 01:55 | 27.70494 | 34.72522 | 29896 ft | 441 kts | 313° |
| 2026-04-28 01:56 | 27.74976 | 34.67767 | 29879 ft | 443 kts | 313° |
| 2026-04-28 01:56 | 27.79455 | 34.63014 | 29887 ft | 440 kts | 313° |
| 2026-04-28 01:57 | 27.83927 | 34.58260 | 29894 ft | 443 kts | 313° |
| 2026-04-28 01:57 | 27.88389 | 34.53513 | 29879 ft | 441 kts | 313° |
| 2026-04-28 01:58 | 27.92851 | 34.48758 | 29900 ft | 441 kts | 313° |
| 2026-04-28 01:58 | 27.97339 | 34.43981 | 29893 ft | 441 kts | 313° |
| 2026-04-28 01:59 | 28.01555 | 34.38914 | 29901 ft | 440 kts | 306° |
| 2026-04-28 01:59 | 28.05383 | 34.33640 | 29913 ft | 440 kts | 306° |
| 2026-04-28 02:00 | 28.09243 | 34.28308 | 29924 ft | 437 kts | 306° |
| 2026-04-28 02:00 | 28.13133 | 34.22924 | 29940 ft | 438 kts | 306° |
| 2026-04-28 02:01 | 28.16960 | 34.17616 | 29961 ft | 436 kts | 306° |
| 2026-04-28 02:01 | 28.20792 | 34.12293 | 29974 ft | 437 kts | 306° |
| 2026-04-28 02:02 | 28.24646 | 34.06935 | 29998 ft | 438 kts | 306° |
| 2026-04-28 02:02 | 28.28502 | 34.01567 | 30021 ft | 437 kts | 306° |
| 2026-04-28 02:03 | 28.32352 | 33.96198 | 30024 ft | 437 kts | 306° |
| 2026-04-28 02:03 | 28.36178 | 33.90857 | 30010 ft | 438 kts | 306° |
| 2026-04-28 02:04 | 28.40025 | 33.85479 | 29994 ft | 438 kts | 306° |
| 2026-04-28 02:04 | 28.43855 | 33.80121 | 29992 ft | 437 kts | 306° |
| 2026-04-28 02:05 | 28.47699 | 33.74733 | 29977 ft | 438 kts | 306° |
| 2026-04-28 02:05 | 28.51543 | 33.69339 | 29982 ft | 439 kts | 306° |
| 2026-04-28 02:06 | 28.55375 | 33.63962 | 29985 ft | 439 kts | 306° |
| 2026-04-28 02:06 | 28.59232 | 33.58553 | 29976 ft | 441 kts | 306° |
| 2026-04-28 02:07 | 28.63078 | 33.53152 | 29968 ft | 439 kts | 306° |
| 2026-04-28 02:07 | 28.66938 | 33.47710 | 29968 ft | 440 kts | 307° |
| 2026-04-28 02:08 | 28.70778 | 33.42292 | 29969 ft | 440 kts | 307° |
| 2026-04-28 02:08 | 28.74609 | 33.36878 | 29964 ft | 441 kts | 306° |
| 2026-04-28 02:09 | 28.78414 | 33.31493 | 29973 ft | 442 kts | 306° |
| 2026-04-28 02:09 | 28.82262 | 33.26042 | 29972 ft | 440 kts | 306° |
| 2026-04-28 02:10 | 28.86082 | 33.20622 | 29959 ft | 440 kts | 306° |
| 2026-04-28 02:10 | 28.89919 | 33.15171 | 29957 ft | 441 kts | 306° |
| 2026-04-28 02:11 | 28.93752 | 33.09718 | 29956 ft | 441 kts | 306° |
| 2026-04-28 02:11 | 28.97584 | 33.04262 | 29962 ft | 441 kts | 306° |
| 2026-04-28 02:12 | 29.01411 | 32.98802 | 29973 ft | 443 kts | 306° |
| 2026-04-28 02:12 | 29.05286 | 32.93270 | 29973 ft | 444 kts | 306° |
| 2026-04-28 02:13 | 29.09115 | 32.87794 | 29968 ft | 443 kts | 306° |
| 2026-04-28 02:13 | 29.12977 | 32.82264 | 29977 ft | 444 kts | 306° |
| 2026-04-28 02:14 | 29.16824 | 32.76748 | 29979 ft | 442 kts | 306° |
| 2026-04-28 02:14 | 29.20648 | 32.71258 | 29977 ft | 444 kts | 306° |
| 2026-04-28 02:15 | 29.26414 | 32.62966 | 29978 ft | 443 kts | 306° |
| 2026-04-28 02:16 | 29.30244 | 32.57424 | 29978 ft | 443 kts | 306° |
| 2026-04-28 02:16 | 29.34061 | 32.51868 | 29981 ft | 443 kts | 306° |
| 2026-04-28 02:17 | 29.37879 | 32.46301 | 29982 ft | 444 kts | 306° |
| 2026-04-28 02:17 | 29.41701 | 32.40725 | 29989 ft | 444 kts | 306° |
| 2026-04-28 02:18 | 29.45514 | 32.35151 | 29995 ft | 445 kts | 306° |
| 2026-04-28 02:18 | 29.49290 | 32.29625 | 30006 ft | 445 kts | 306° |
| 2026-04-28 02:19 | 29.53108 | 32.24030 | 30010 ft | 445 kts | 306° |
| 2026-04-28 02:19 | 29.56928 | 32.18425 | 30007 ft | 446 kts | 305° |
| 2026-04-28 02:20 | 29.60747 | 32.12812 | 30001 ft | 445 kts | 305° |
| 2026-04-28 02:20 | 29.64560 | 32.07201 | 30002 ft | 445 kts | 305° |
| 2026-04-28 02:21 | 29.68373 | 32.01582 | 29999 ft | 445 kts | 306° |
| 2026-04-28 02:21 | 29.72186 | 31.95956 | 29996 ft | 445 kts | 306° |
| 2026-04-28 02:22 | 29.75978 | 31.90353 | 29992 ft | 447 kts | 305° |
| 2026-04-28 02:22 | 29.79778 | 31.84632 | 29992 ft | 446 kts | 304° |
| 2026-04-28 02:23 | 29.83470 | 31.78876 | 29988 ft | 446 kts | 304° |
| 2026-04-28 02:23 | 29.87153 | 31.73131 | 29991 ft | 445 kts | 304° |
| 2026-04-28 02:24 | 29.90818 | 31.67408 | 29994 ft | 445 kts | 304° |
| 2026-04-28 02:24 | 29.94577 | 31.61589 | 29996 ft | 446 kts | 304° |
| 2026-04-28 02:25 | 29.98316 | 31.55806 | 30000 ft | 445 kts | 304° |
| 2026-04-28 02:25 | 30.02033 | 31.50049 | 30001 ft | 445 kts | 304° |
| 2026-04-28 02:26 | 30.05792 | 31.44218 | 30002 ft | 446 kts | 304° |
| 2026-04-28 02:26 | 30.09650 | 31.38519 | 29998 ft | 448 kts | 312° |
| 2026-04-28 02:27 | 30.14233 | 31.33540 | 30012 ft | 451 kts | 314° |
| 2026-04-28 02:27 | 30.18851 | 31.28566 | 30012 ft | 451 kts | 314° |
| 2026-04-28 02:28 | 30.23488 | 31.23574 | 30008 ft | 449 kts | 314° |
| 2026-04-28 02:28 | 30.28094 | 31.18612 | 30010 ft | 449 kts | 314° |
| 2026-04-28 02:29 | 30.32703 | 31.13643 | 30009 ft | 449 kts | 314° |
| 2026-04-28 02:29 | 30.37311 | 31.08668 | 30010 ft | 449 kts | 314° |
| 2026-04-28 02:30 | 30.41929 | 31.03678 | 30010 ft | 449 kts | 314° |
| 2026-04-28 02:30 | 30.46527 | 30.98701 | 30010 ft | 450 kts | 314° |
| 2026-04-28 02:31 | 30.51156 | 30.93684 | 30008 ft | 449 kts | 314° |
| 2026-04-28 02:31 | 30.55747 | 30.88701 | 30010 ft | 450 kts | 314° |
| 2026-04-28 02:32 | 30.60331 | 30.83720 | 30007 ft | 450 kts | 314° |
| 2026-04-28 02:32 | 30.64934 | 30.78713 | 30007 ft | 449 kts | 314° |
| 2026-04-28 02:33 | 30.69500 | 30.73738 | 30008 ft | 450 kts | 314° |
| 2026-04-28 02:33 | 30.74087 | 30.68732 | 30005 ft | 450 kts | 314° |
| 2026-04-28 02:34 | 30.78655 | 30.63741 | 30005 ft | 449 kts | 314° |
| 2026-04-28 02:34 | 30.83222 | 30.58745 | 30005 ft | 449 kts | 314° |
| 2026-04-28 02:35 | 30.87769 | 30.53763 | 30004 ft | 448 kts | 314° |
| 2026-04-28 02:35 | 30.92337 | 30.48751 | 30005 ft | 447 kts | 314° |
| 2026-04-28 02:36 | 30.96873 | 30.43768 | 30003 ft | 448 kts | 314° |
| 2026-04-28 02:36 | 31.01410 | 30.38777 | 30002 ft | 448 kts | 314° |
| 2026-04-28 02:37 | 31.05898 | 30.33815 | 30001 ft | 447 kts | 312° |
| 2026-04-28 02:37 | 31.09467 | 30.27945 | 30018 ft | 443 kts | 294° |
| 2026-04-28 02:38 | 31.11563 | 30.21159 | 30003 ft | 443 kts | 288° |
| 2026-04-28 02:38 | 31.13489 | 30.14324 | 30009 ft | 443 kts | 288° |
| 2026-04-28 02:39 | 31.15382 | 30.07468 | 30009 ft | 443 kts | 288° |
| 2026-04-28 02:39 | 31.17431 | 30.00646 | 30012 ft | 441 kts | 296° |
| 2026-04-28 02:40 | 31.21000 | 29.94829 | 30021 ft | 447 kts | 314° |
| 2026-04-28 02:40 | 31.26093 | 29.90629 | 30027 ft | 454 kts | 328° |
| 2026-04-28 02:41 | 31.31605 | 29.87127 | 30012 ft | 453 kts | 328° |
| 2026-04-28 02:41 | 31.37145 | 29.83631 | 30001 ft | 453 kts | 328° |
| 2026-04-28 02:42 | 31.42710 | 29.80132 | 29999 ft | 453 kts | 328° |
| 2026-04-28 02:42 | 31.48265 | 29.76641 | 29995 ft | 454 kts | 329° |
| 2026-04-28 02:43 | 31.53824 | 29.73147 | 29995 ft | 454 kts | 329° |
| 2026-04-28 02:43 | 31.59407 | 29.69634 | 29993 ft | 454 kts | 329° |
| 2026-04-28 02:44 | 31.64977 | 29.66124 | 29990 ft | 454 kts | 329° |
| 2026-04-28 02:44 | 31.70521 | 29.62627 | 29989 ft | 454 kts | 329° |
| 2026-04-28 02:45 | 31.76060 | 29.59126 | 29988 ft | 454 kts | 329° |
| 2026-04-28 02:45 | 31.81657 | 29.55586 | 29987 ft | 455 kts | 329° |
| 2026-04-28 02:46 | 31.87205 | 29.52071 | 29988 ft | 456 kts | 329° |
| 2026-04-28 02:46 | 31.92820 | 29.48510 | 29982 ft | 456 kts | 329° |
| 2026-04-28 02:47 | 31.98366 | 29.44987 | 29985 ft | 454 kts | 329° |
| 2026-04-28 02:47 | 32.03905 | 29.41463 | 29981 ft | 454 kts | 329° |
| 2026-04-28 02:48 | 32.09471 | 29.37917 | 29979 ft | 455 kts | 329° |
| 2026-04-28 02:48 | 32.14758 | 29.34544 | 29984 ft | 455 kts | 328° |
| 2026-04-28 02:49 | 32.20312 | 29.30997 | 29990 ft | 456 kts | 328° |
| 2026-04-28 02:49 | 32.25886 | 29.27429 | 29989 ft | 455 kts | 328° |
| 2026-04-28 02:50 | 32.31418 | 29.23881 | 29988 ft | 454 kts | 328° |
| 2026-04-28 02:50 | 32.36959 | 29.20323 | 29988 ft | 454 kts | 328° |
| 2026-04-28 02:51 | 32.42549 | 29.16729 | 29988 ft | 456 kts | 328° |
| 2026-04-28 02:51 | 32.48082 | 29.13167 | 29988 ft | 455 kts | 328° |
| 2026-04-28 02:52 | 32.53661 | 29.09569 | 29989 ft | 456 kts | 328° |
| 2026-04-28 02:52 | 32.59222 | 29.05978 | 29987 ft | 455 kts | 328° |
| 2026-04-28 02:53 | 32.64783 | 29.02382 | 29987 ft | 454 kts | 328° |
| 2026-04-28 02:53 | 32.70305 | 28.98806 | 29988 ft | 454 kts | 328° |
| 2026-04-28 02:54 | 32.75878 | 28.95191 | 29987 ft | 455 kts | 328° |
| 2026-04-28 02:54 | 32.81448 | 28.91574 | 29986 ft | 455 kts | 328° |
| 2026-04-28 02:55 | 32.86977 | 28.87978 | 29986 ft | 455 kts | 328° |
| 2026-04-28 02:55 | 32.92559 | 28.84342 | 29986 ft | 456 kts | 328° |
| 2026-04-28 02:56 | 32.98120 | 28.80714 | 29984 ft | 456 kts | 328° |
| 2026-04-28 02:56 | 33.03653 | 28.77101 | 29979 ft | 457 kts | 328° |
| 2026-04-28 02:57 | 33.09232 | 28.73451 | 29967 ft | 456 kts | 328° |
| 2026-04-28 02:57 | 33.14790 | 28.69810 | 29974 ft | 456 kts | 328° |
| 2026-04-28 02:58 | 33.20347 | 28.66164 | 29971 ft | 456 kts | 328° |
| 2026-04-28 02:58 | 33.25901 | 28.62515 | 29974 ft | 456 kts | 328° |
| 2026-04-28 02:59 | 33.31484 | 28.58842 | 29969 ft | 456 kts | 328° |
| 2026-04-28 02:59 | 33.37029 | 28.55188 | 29970 ft | 456 kts | 328° |
| 2026-04-28 03:00 | 33.42598 | 28.51513 | 29970 ft | 456 kts | 328° |
| 2026-04-28 03:00 | 33.48154 | 28.47840 | 29964 ft | 457 kts | 328° |
| 2026-04-28 03:01 | 33.53723 | 28.44154 | 29968 ft | 458 kts | 328° |
| 2026-04-28 03:01 | 33.59274 | 28.40475 | 29967 ft | 458 kts | 328° |
| 2026-04-28 03:02 | 33.64853 | 28.36771 | 29961 ft | 458 kts | 328° |
| 2026-04-28 03:02 | 33.70445 | 28.33053 | 29981 ft | 459 kts | 328° |
| 2026-04-28 03:03 | 33.76037 | 28.29330 | 29985 ft | 460 kts | 328° |
| 2026-04-28 03:03 | 33.81664 | 28.25666 | 29990 ft | 462 kts | 330° |
| 2026-04-28 03:04 | 33.87420 | 28.22234 | 29986 ft | 462 kts | 330° |
| 2026-04-28 03:04 | 33.93163 | 28.18789 | 29983 ft | 463 kts | 330° |
| 2026-04-28 03:05 | 33.98931 | 28.15322 | 29988 ft | 463 kts | 330° |
| 2026-04-28 03:05 | 34.04685 | 28.11857 | 29986 ft | 464 kts | 330° |
| 2026-04-28 03:06 | 34.10406 | 28.08407 | 29989 ft | 463 kts | 330° |
| 2026-04-28 03:06 | 34.16098 | 28.04969 | 29979 ft | 464 kts | 330° |
| 2026-04-28 03:07 | 34.21860 | 28.01483 | 29968 ft | 463 kts | 330° |
| 2026-04-28 03:07 | 34.27622 | 27.97992 | 29964 ft | 463 kts | 330° |
| 2026-04-28 03:08 | 34.33379 | 27.94498 | 29962 ft | 464 kts | 330° |
| 2026-04-28 03:08 | 34.39154 | 27.90988 | 29961 ft | 465 kts | 330° |
| 2026-04-28 03:09 | 34.44950 | 27.87461 | 29956 ft | 465 kts | 330° |
| 2026-04-28 03:09 | 34.50719 | 27.83945 | 29958 ft | 465 kts | 330° |
| 2026-04-28 03:10 | 34.56467 | 27.80434 | 29956 ft | 464 kts | 330° |
| 2026-04-28 03:10 | 34.62260 | 27.76891 | 29954 ft | 465 kts | 330° |
| 2026-04-28 03:11 | 34.68028 | 27.73359 | 29952 ft | 466 kts | 331° |
| 2026-04-28 03:11 | 34.73797 | 27.69819 | 29952 ft | 466 kts | 331° |
| 2026-04-28 03:12 | 34.79588 | 27.66261 | 29950 ft | 467 kts | 331° |
| 2026-04-28 03:12 | 34.85418 | 27.62673 | 29951 ft | 467 kts | 331° |
| 2026-04-28 03:13 | 34.91172 | 27.59127 | 29956 ft | 465 kts | 331° |
| 2026-04-28 03:13 | 34.96960 | 27.55553 | 29955 ft | 466 kts | 331° |
| 2026-04-28 03:14 | 35.02757 | 27.51968 | 29953 ft | 467 kts | 331° |
| 2026-04-28 03:14 | 35.08526 | 27.48395 | 29950 ft | 467 kts | 331° |
| 2026-04-28 03:15 | 35.14310 | 27.44807 | 29952 ft | 469 kts | 331° |
| 2026-04-28 03:15 | 35.20105 | 27.41207 | 29956 ft | 468 kts | 331° |
| 2026-04-28 03:16 | 35.25926 | 27.37584 | 29952 ft | 467 kts | 331° |
| 2026-04-28 03:16 | 35.31713 | 27.33977 | 29958 ft | 467 kts | 331° |
| 2026-04-28 03:17 | 35.37477 | 27.30378 | 29955 ft | 467 kts | 331° |
| 2026-04-28 03:17 | 35.46182 | 27.24932 | 29951 ft | 468 kts | 331° |
| 2026-04-28 03:18 | 35.51953 | 27.21314 | 29952 ft | 468 kts | 331° |
| 2026-04-28 03:18 | 35.57758 | 27.17669 | 29951 ft | 468 kts | 331° |
| 2026-04-28 03:19 | 35.63538 | 27.14034 | 29953 ft | 468 kts | 331° |
| 2026-04-28 03:19 | 35.69324 | 27.10388 | 29950 ft | 468 kts | 331° |
| 2026-04-28 03:20 | 35.75142 | 27.06717 | 29949 ft | 468 kts | 331° |
| 2026-04-28 03:20 | 35.80925 | 27.03062 | 29949 ft | 467 kts | 332° |
| 2026-04-28 03:21 | 35.86680 | 26.99419 | 29957 ft | 468 kts | 332° |
| 2026-04-28 03:21 | 35.92474 | 26.95744 | 29958 ft | 469 kts | 332° |
| 2026-04-28 03:22 | 35.98291 | 26.92049 | 29949 ft | 469 kts | 332° |
| 2026-04-28 03:22 | 36.04075 | 26.88369 | 29949 ft | 469 kts | 332° |
| 2026-04-28 03:23 | 36.09877 | 26.84672 | 29951 ft | 469 kts | 332° |
| 2026-04-28 03:23 | 36.15600 | 26.81019 | 29962 ft | 469 kts | 332° |
| 2026-04-28 03:24 | 36.21395 | 26.77312 | 29970 ft | 469 kts | 332° |
| 2026-04-28 03:24 | 36.27198 | 26.73596 | 29973 ft | 470 kts | 332° |
| 2026-04-28 03:25 | 36.33034 | 26.69852 | 29976 ft | 471 kts | 332° |
| 2026-04-28 03:25 | 36.38817 | 26.66135 | 29980 ft | 470 kts | 332° |
| 2026-04-28 03:26 | 36.44616 | 26.62402 | 29977 ft | 470 kts | 332° |
| 2026-04-28 03:26 | 36.50417 | 26.58661 | 29979 ft | 469 kts | 331° |
| 2026-04-28 03:27 | 36.56229 | 26.54907 | 29978 ft | 469 kts | 331° |
| 2026-04-28 03:27 | 36.61999 | 26.51173 | 29978 ft | 470 kts | 332° |
| 2026-04-28 03:28 | 36.67833 | 26.47391 | 29979 ft | 472 kts | 332° |
| 2026-04-28 03:28 | 36.73630 | 26.43628 | 29983 ft | 471 kts | 331° |
| 2026-04-28 03:29 | 36.79456 | 26.39839 | 29981 ft | 471 kts | 331° |
| 2026-04-28 03:29 | 36.85250 | 26.36064 | 29975 ft | 471 kts | 331° |
| 2026-04-28 03:30 | 36.90904 | 26.32374 | 29983 ft | 470 kts | 331° |
| 2026-04-28 03:30 | 36.96693 | 26.28589 | 29991 ft | 470 kts | 331° |
| 2026-04-28 03:31 | 37.02481 | 26.24798 | 29995 ft | 471 kts | 330° |
| 2026-04-28 03:31 | 37.08263 | 26.21005 | 30001 ft | 472 kts | 331° |
| 2026-04-28 03:32 | 37.14134 | 26.17147 | 30003 ft | 473 kts | 331° |
| 2026-04-28 03:32 | 37.19951 | 26.13318 | 30007 ft | 471 kts | 330° |
| 2026-04-28 03:33 | 37.25758 | 26.09489 | 30010 ft | 471 kts | 330° |
| 2026-04-28 03:33 | 37.31548 | 26.05663 | 30014 ft | 470 kts | 330° |
| 2026-04-28 03:34 | 37.37330 | 26.01837 | 30017 ft | 469 kts | 330° |
| 2026-04-28 03:34 | 37.43108 | 25.98006 | 30017 ft | 471 kts | 330° |
| 2026-04-28 03:35 | 37.48915 | 25.94150 | 30021 ft | 471 kts | 330° |
| 2026-04-28 03:35 | 37.54693 | 25.90306 | 30023 ft | 471 kts | 330° |
| 2026-04-28 03:36 | 37.60486 | 25.86497 | 30022 ft | 472 kts | 332° |
| 2026-04-28 03:36 | 37.66404 | 25.82835 | 30023 ft | 471 kts | 332° |
| 2026-04-28 03:37 | 37.72260 | 25.79194 | 30027 ft | 469 kts | 332° |
| 2026-04-28 03:37 | 37.78114 | 25.75547 | 30026 ft | 470 kts | 332° |
| 2026-04-28 03:38 | 37.83979 | 25.71885 | 30027 ft | 470 kts | 332° |
| 2026-04-28 03:38 | 37.89803 | 25.68242 | 30031 ft | 471 kts | 332° |
| 2026-04-28 03:39 | 37.95718 | 25.64537 | 30036 ft | 472 kts | 332° |
| 2026-04-28 03:39 | 38.01588 | 25.60852 | 30034 ft | 472 kts | 332° |
| 2026-04-28 03:40 | 38.07437 | 25.57174 | 30037 ft | 471 kts | 332° |
| 2026-04-28 03:40 | 38.13315 | 25.53472 | 30038 ft | 470 kts | 332° |
| 2026-04-28 03:41 | 38.19185 | 25.49768 | 30042 ft | 469 kts | 332° |
| 2026-04-28 03:41 | 38.25042 | 25.46064 | 30043 ft | 470 kts | 332° |
| 2026-04-28 03:42 | 38.30902 | 25.42353 | 30046 ft | 470 kts | 332° |
| 2026-04-28 03:42 | 38.36704 | 25.38671 | 30050 ft | 469 kts | 332° |
| 2026-04-28 03:43 | 38.42479 | 25.35000 | 30050 ft | 469 kts | 332° |
| 2026-04-28 03:43 | 38.48124 | 25.31406 | 30065 ft | 468 kts | 331° |
| 2026-04-28 03:44 | 38.53933 | 25.27700 | 30061 ft | 469 kts | 331° |
| 2026-04-28 03:44 | 38.59746 | 25.23985 | 30064 ft | 469 kts | 331° |
| 2026-04-28 03:45 | 38.65607 | 25.20233 | 30073 ft | 469 kts | 331° |
| 2026-04-28 03:45 | 38.71412 | 25.16509 | 30071 ft | 468 kts | 331° |
| 2026-04-28 03:46 | 38.77223 | 25.12775 | 30082 ft | 467 kts | 331° |
| 2026-04-28 03:46 | 38.83008 | 25.09051 | 30078 ft | 466 kts | 331° |
| 2026-04-28 03:47 | 38.88794 | 25.05319 | 30088 ft | 467 kts | 331° |
| 2026-04-28 03:47 | 38.94588 | 25.01575 | 30090 ft | 467 kts | 331° |
| 2026-04-28 03:48 | 39.00405 | 24.97810 | 30085 ft | 468 kts | 331° |
| 2026-04-28 03:48 | 39.06196 | 24.94054 | 30091 ft | 468 kts | 331° |
| 2026-04-28 03:49 | 39.12000 | 24.90340 | 30097 ft | 468 kts | 332° |
| 2026-04-28 03:49 | 39.17895 | 24.86695 | 30097 ft | 467 kts | 332° |
| 2026-04-28 03:50 | 39.23756 | 24.83059 | 30100 ft | 466 kts | 332° |
| 2026-04-28 03:50 | 39.29612 | 24.79420 | 30098 ft | 468 kts | 332° |
| 2026-04-28 03:51 | 39.35441 | 24.75790 | 30100 ft | 468 kts | 332° |
| 2026-04-28 03:51 | 39.41324 | 24.72120 | 30103 ft | 468 kts | 332° |
| 2026-04-28 03:52 | 39.47168 | 24.68467 | 30106 ft | 468 kts | 332° |
| 2026-04-28 03:52 | 39.52988 | 24.64822 | 30105 ft | 467 kts | 332° |
| 2026-04-28 03:53 | 39.58854 | 24.61144 | 30107 ft | 467 kts | 332° |
| 2026-04-28 03:53 | 39.64688 | 24.57477 | 30113 ft | 467 kts | 332° |
| 2026-04-28 03:54 | 39.70510 | 24.53812 | 30112 ft | 467 kts | 332° |
| 2026-04-28 03:54 | 39.76353 | 24.50126 | 30112 ft | 467 kts | 332° |
| 2026-04-28 03:55 | 39.82211 | 24.46423 | 30118 ft | 468 kts | 332° |
| 2026-04-28 03:55 | 39.88081 | 24.42706 | 30116 ft | 468 kts | 332° |
| 2026-04-28 03:56 | 39.93931 | 24.38995 | 30122 ft | 468 kts | 332° |
| 2026-04-28 03:56 | 39.99749 | 24.35297 | 30120 ft | 467 kts | 332° |
| 2026-04-28 03:57 | 40.05460 | 24.31660 | 30127 ft | 467 kts | 332° |
| 2026-04-28 03:57 | 40.11079 | 24.28075 | 30125 ft | 468 kts | 332° |
| 2026-04-28 03:58 | 40.16869 | 24.24373 | 30125 ft | 468 kts | 332° |
| 2026-04-28 03:58 | 40.22740 | 24.20613 | 30124 ft | 468 kts | 332° |
| 2026-04-28 03:59 | 40.28589 | 24.16860 | 30124 ft | 467 kts | 332° |
| 2026-04-28 03:59 | 40.34414 | 24.13115 | 30132 ft | 467 kts | 332° |
| 2026-04-28 04:00 | 40.40252 | 24.09354 | 30124 ft | 467 kts | 332° |
| 2026-04-28 04:00 | 40.46091 | 24.05586 | 30122 ft | 466 kts | 332° |
| 2026-04-28 04:01 | 40.51922 | 24.01815 | 30119 ft | 465 kts | 332° |
| 2026-04-28 04:01 | 40.57735 | 23.98048 | 30122 ft | 466 kts | 333° |
| 2026-04-28 04:02 | 40.63589 | 23.94334 | 30122 ft | 466 kts | 333° |
| 2026-04-28 04:02 | 40.69472 | 23.90639 | 30122 ft | 466 kts | 334° |
| 2026-04-28 04:03 | 40.75345 | 23.86945 | 30123 ft | 467 kts | 333° |
| 2026-04-28 04:03 | 40.81186 | 23.83262 | 30122 ft | 466 kts | 334° |
| 2026-04-28 04:04 | 40.87067 | 23.79546 | 30125 ft | 465 kts | 334° |
| 2026-04-28 04:04 | 40.92886 | 23.75863 | 30124 ft | 465 kts | 334° |
| 2026-04-28 04:05 | 40.98741 | 23.72149 | 30128 ft | 464 kts | 334° |
| 2026-04-28 04:05 | 41.04557 | 23.68454 | 30123 ft | 463 kts | 334° |
| 2026-04-28 04:06 | 41.10251 | 23.64828 | 30118 ft | 462 kts | 334° |
| 2026-04-28 04:06 | 41.15667 | 23.61372 | 30118 ft | 462 kts | 334° |
| 2026-04-28 04:07 | 41.21756 | 23.57480 | 30123 ft | 462 kts | 335° |
| 2026-04-28 04:07 | 41.27575 | 23.53749 | 30124 ft | 463 kts | 334° |
| 2026-04-28 04:08 | 41.33373 | 23.50021 | 30123 ft | 462 kts | 335° |
| 2026-04-28 04:08 | 41.39233 | 23.46246 | 30124 ft | 461 kts | 335° |
| 2026-04-28 04:09 | 41.45010 | 23.42494 | 30127 ft | 460 kts | 335° |
| 2026-04-28 04:09 | 41.50806 | 23.38717 | 30127 ft | 460 kts | 335° |
| 2026-04-28 04:10 | 41.56480 | 23.35011 | 30129 ft | 461 kts | 335° |
| 2026-04-28 04:10 | 41.62211 | 23.31261 | 30125 ft | 460 kts | 334° |
| 2026-04-28 04:11 | 41.67985 | 23.27476 | 30126 ft | 460 kts | 334° |
| 2026-04-28 04:11 | 41.73780 | 23.23670 | 30127 ft | 461 kts | 334° |
| 2026-04-28 04:12 | 41.79626 | 23.19821 | 30120 ft | 460 kts | 334° |
| 2026-04-28 04:12 | 41.85383 | 23.16024 | 30123 ft | 459 kts | 335° |
| 2026-04-28 04:13 | 41.91150 | 23.12212 | 30125 ft | 460 kts | 335° |
| 2026-04-28 04:13 | 41.96946 | 23.08374 | 30123 ft | 458 kts | 335° |
| 2026-04-28 04:14 | 42.02648 | 23.04590 | 30121 ft | 457 kts | 335° |
| 2026-04-28 04:14 | 42.08434 | 23.00743 | 30123 ft | 459 kts | 335° |
| 2026-04-28 04:15 | 42.13868 | 22.97123 | 30128 ft | 459 kts | 335° |
| 2026-04-28 04:16 | 42.22491 | 22.91363 | 30127 ft | 459 kts | 335° |
| 2026-04-28 04:16 | 42.28247 | 22.87508 | 30125 ft | 458 kts | 334° |
| 2026-04-28 04:17 | 42.33953 | 22.83680 | 30126 ft | 456 kts | 334° |
| 2026-04-28 04:17 | 42.39645 | 22.79853 | 30125 ft | 457 kts | 334° |
| 2026-04-28 04:18 | 42.45348 | 22.76011 | 30123 ft | 458 kts | 334° |
| 2026-04-28 04:18 | 42.51093 | 22.72133 | 30122 ft | 458 kts | 334° |
| 2026-04-28 04:19 | 42.56830 | 22.68251 | 30120 ft | 457 kts | 334° |
| 2026-04-28 04:19 | 42.62554 | 22.64371 | 30120 ft | 457 kts | 334° |
| 2026-04-28 04:20 | 42.68307 | 22.60463 | 30121 ft | 457 kts | 334° |
| 2026-04-28 04:20 | 42.74035 | 22.56564 | 30123 ft | 458 kts | 333° |
| 2026-04-28 04:21 | 42.79761 | 22.52657 | 30123 ft | 457 kts | 333° |
| 2026-04-28 04:21 | 42.85409 | 22.48604 | 30119 ft | 456 kts | 327° |
| 2026-04-28 04:22 | 42.90785 | 22.43829 | 30119 ft | 457 kts | 327° |
| 2026-04-28 04:22 | 42.96176 | 22.39034 | 30116 ft | 456 kts | 327° |
| 2026-04-28 04:23 | 43.01313 | 22.34446 | 30114 ft | 456 kts | 326° |
| 2026-04-28 04:23 | 43.06635 | 22.29680 | 30112 ft | 456 kts | 326° |
| 2026-04-28 04:24 | 43.11418 | 22.25386 | 30115 ft | 455 kts | 326° |
| 2026-04-28 04:24 | 43.16603 | 22.20722 | 30114 ft | 455 kts | 326° |
| 2026-04-28 04:25 | 43.21922 | 22.15927 | 30115 ft | 454 kts | 326° |
| 2026-04-28 04:25 | 43.27270 | 22.11095 | 30111 ft | 455 kts | 326° |
| 2026-04-28 04:26 | 43.32564 | 22.06301 | 30098 ft | 455 kts | 326° |
| 2026-04-28 04:26 | 43.37899 | 22.01462 | 30103 ft | 454 kts | 326° |
| 2026-04-28 04:27 | 43.43245 | 21.96601 | 30093 ft | 454 kts | 326° |
| 2026-04-28 04:27 | 43.48562 | 21.91756 | 30098 ft | 455 kts | 326° |
| 2026-04-28 04:28 | 43.53874 | 21.86905 | 30106 ft | 455 kts | 326° |
| 2026-04-28 04:28 | 43.59186 | 21.82044 | 30105 ft | 454 kts | 326° |
| 2026-04-28 04:29 | 43.64452 | 21.77214 | 30108 ft | 453 kts | 326° |
| 2026-04-28 04:29 | 43.69739 | 21.72355 | 30108 ft | 454 kts | 326° |
| 2026-04-28 04:30 | 43.75025 | 21.67487 | 30103 ft | 455 kts | 326° |
| 2026-04-28 04:30 | 43.80339 | 21.62581 | 30101 ft | 454 kts | 326° |
| 2026-04-28 04:31 | 43.85629 | 21.57687 | 30101 ft | 455 kts | 326° |
| 2026-04-28 04:31 | 43.90928 | 21.52776 | 30103 ft | 454 kts | 326° |
| 2026-04-28 04:32 | 43.96211 | 21.47868 | 30104 ft | 453 kts | 326° |
| 2026-04-28 04:32 | 44.01439 | 21.42976 | 30102 ft | 452 kts | 324° |
| 2026-04-28 04:33 | 44.06567 | 21.37959 | 30106 ft | 453 kts | 324° |
| 2026-04-28 04:33 | 44.11447 | 21.33178 | 30113 ft | 453 kts | 323° |
| 2026-04-28 04:34 | 44.16062 | 21.28652 | 30112 ft | 453 kts | 324° |
| 2026-04-28 04:34 | 44.20982 | 21.23815 | 30117 ft | 453 kts | 323° |
| 2026-04-28 04:35 | 44.26125 | 21.18751 | 30112 ft | 452 kts | 324° |
| 2026-04-28 04:35 | 44.31280 | 21.13663 | 30113 ft | 451 kts | 323° |
| 2026-04-28 04:36 | 44.36429 | 21.08570 | 30110 ft | 451 kts | 323° |
| 2026-04-28 04:36 | 44.41571 | 21.03471 | 30110 ft | 452 kts | 323° |
| 2026-04-28 04:37 | 44.46712 | 20.98363 | 30111 ft | 451 kts | 323° |
| 2026-04-28 04:37 | 44.51837 | 20.93259 | 30111 ft | 452 kts | 323° |
| 2026-04-28 04:38 | 44.56817 | 20.88289 | 30105 ft | 450 kts | 323° |
| 2026-04-28 04:38 | 44.61688 | 20.83417 | 30108 ft | 452 kts | 323° |
| 2026-04-28 04:39 | 44.66805 | 20.78290 | 30110 ft | 451 kts | 323° |
| 2026-04-28 04:39 | 44.71839 | 20.73234 | 30116 ft | 452 kts | 323° |
| 2026-04-28 04:40 | 44.76784 | 20.68256 | 30112 ft | 451 kts | 323° |
| 2026-04-28 04:40 | 44.81606 | 20.63392 | 30109 ft | 451 kts | 323° |
| 2026-04-28 04:41 | 44.86758 | 20.58183 | 30110 ft | 451 kts | 323° |
| 2026-04-28 04:41 | 44.91857 | 20.53018 | 30112 ft | 451 kts | 323° |
| 2026-04-28 04:42 | 44.97005 | 20.47789 | 30112 ft | 450 kts | 323° |
| 2026-04-28 04:42 | 45.02120 | 20.42583 | 30120 ft | 449 kts | 323° |
| 2026-04-28 04:43 | 45.07207 | 20.37394 | 30115 ft | 450 kts | 323° |
| 2026-04-28 04:43 | 45.11670 | 20.32832 | 30127 ft | 450 kts | 322° |
| 2026-04-28 04:44 | 45.16439 | 20.27947 | 30133 ft | 450 kts | 322° |
| 2026-04-28 04:44 | 45.21507 | 20.22744 | 30133 ft | 450 kts | 322° |
| 2026-04-28 04:45 | 45.26606 | 20.17498 | 30136 ft | 450 kts | 322° |
| 2026-04-28 04:45 | 45.31571 | 20.12378 | 30134 ft | 448 kts | 322° |
| 2026-04-28 04:46 | 45.36554 | 20.07229 | 30134 ft | 449 kts | 322° |
| 2026-04-28 04:46 | 45.41599 | 20.02004 | 30133 ft | 449 kts | 322° |
| 2026-04-28 04:47 | 45.46648 | 19.96763 | 30129 ft | 448 kts | 322° |
| 2026-04-28 04:47 | 45.51706 | 19.91499 | 30133 ft | 448 kts | 322° |
| 2026-04-28 04:48 | 45.56711 | 19.86280 | 30128 ft | 446 kts | 322° |
| 2026-04-28 04:48 | 45.61734 | 19.81030 | 30131 ft | 446 kts | 322° |
| 2026-04-28 04:49 | 45.66746 | 19.75779 | 30125 ft | 446 kts | 322° |
| 2026-04-28 04:49 | 45.71751 | 19.70524 | 30128 ft | 448 kts | 322° |
| 2026-04-28 04:50 | 45.76811 | 19.65201 | 30133 ft | 447 kts | 322° |
| 2026-04-28 04:50 | 45.81799 | 19.59939 | 30124 ft | 445 kts | 322° |
| 2026-04-28 04:51 | 45.86795 | 19.54656 | 30125 ft | 445 kts | 322° |
| 2026-04-28 04:51 | 45.91790 | 19.49364 | 30119 ft | 446 kts | 322° |
| 2026-04-28 04:52 | 45.96794 | 19.44051 | 30122 ft | 446 kts | 322° |
| 2026-04-28 04:52 | 46.01796 | 19.38727 | 30122 ft | 445 kts | 322° |
| 2026-04-28 04:53 | 46.06468 | 19.33623 | 30129 ft | 443 kts | 319° |
| 2026-04-28 04:53 | 46.10791 | 19.28655 | 30130 ft | 443 kts | 319° |
| 2026-04-28 04:54 | 46.15542 | 19.23192 | 30132 ft | 444 kts | 319° |
| 2026-04-28 04:54 | 46.20412 | 19.17582 | 30135 ft | 445 kts | 320° |
| 2026-04-28 04:55 | 46.25247 | 19.12000 | 30134 ft | 444 kts | 320° |
| 2026-04-28 04:55 | 46.30101 | 19.06383 | 30131 ft | 443 kts | 320° |
| 2026-04-28 04:56 | 46.34785 | 19.00950 | 30132 ft | 444 kts | 320° |
| 2026-04-28 04:56 | 46.39621 | 18.95330 | 30135 ft | 443 kts | 319° |
| 2026-04-28 04:57 | 46.44467 | 18.89683 | 30125 ft | 444 kts | 319° |
| 2026-04-28 04:57 | 46.49279 | 18.84063 | 30130 ft | 444 kts | 319° |
| 2026-04-28 04:58 | 46.54111 | 18.78405 | 30134 ft | 443 kts | 319° |
| 2026-04-28 04:58 | 46.58953 | 18.72724 | 30134 ft | 442 kts | 319° |
| 2026-04-28 04:59 | 46.63760 | 18.67070 | 30139 ft | 443 kts | 319° |
| 2026-04-28 04:59 | 46.68598 | 18.61366 | 30131 ft | 443 kts | 319° |
| 2026-04-28 05:00 | 46.73390 | 18.55701 | 30129 ft | 444 kts | 319° |
| 2026-04-28 05:00 | 46.78184 | 18.50023 | 30130 ft | 443 kts | 319° |
| 2026-04-28 05:01 | 46.82993 | 18.44314 | 30133 ft | 441 kts | 319° |
| 2026-04-28 05:01 | 46.87760 | 18.38640 | 30142 ft | 442 kts | 319° |
| 2026-04-28 05:02 | 46.92149 | 18.33404 | 30136 ft | 442 kts | 319° |
| 2026-04-28 05:02 | 46.96999 | 18.27604 | 30130 ft | 442 kts | 319° |
| 2026-04-28 05:03 | 47.01826 | 18.21819 | 30131 ft | 442 kts | 319° |
| 2026-04-28 05:03 | 47.06564 | 18.16024 | 30127 ft | 440 kts | 316° |
| 2026-04-28 05:04 | 47.10826 | 18.10285 | 30128 ft | 441 kts | 316° |
| 2026-04-28 05:04 | 47.14890 | 18.04822 | 30132 ft | 441 kts | 316° |
| 2026-04-28 05:05 | 47.19347 | 17.98822 | 30131 ft | 441 kts | 316° |
| 2026-04-28 05:05 | 47.23912 | 17.92664 | 30131 ft | 442 kts | 316° |
| 2026-04-28 05:06 | 47.28453 | 17.86526 | 30135 ft | 440 kts | 316° |
| 2026-04-28 05:06 | 47.32912 | 17.80482 | 30139 ft | 438 kts | 316° |
| 2026-04-28 05:07 | 47.37459 | 17.74305 | 30135 ft | 440 kts | 315° |
| 2026-04-28 05:07 | 47.41983 | 17.68144 | 30132 ft | 440 kts | 315° |
| 2026-04-28 05:08 | 47.46427 | 17.62077 | 30124 ft | 439 kts | 315° |
| 2026-04-28 05:08 | 47.50930 | 17.55914 | 30140 ft | 438 kts | 315° |
| 2026-04-28 05:09 | 47.55425 | 17.49748 | 30135 ft | 438 kts | 315° |
| 2026-04-28 05:09 | 47.59895 | 17.43601 | 30135 ft | 438 kts | 315° |
| 2026-04-28 05:10 | 47.64379 | 17.37416 | 30138 ft | 439 kts | 315° |
| 2026-04-28 05:10 | 47.68437 | 17.31811 | 30141 ft | 439 kts | 315° |